createdAt,value
2022-09-28T00:01:07.848Z,99362.22
2022-09-28T00:03:36.222Z,99367.69
2022-09-28T00:06:06.211Z,99366.34
2022-09-28T00:08:35.101Z,99366.28
2022-09-28T00:11:04.027Z,99364.19
2022-09-28T00:13:34.207Z,99354.31
2022-09-28T00:16:04.000Z,99366.94
2022-09-28T00:18:32.393Z,99365.31
2022-09-28T00:21:05.853Z,99364.00
2022-09-28T00:23:34.432Z,99367.69
2022-09-28T00:26:06.415Z,99363.78
2022-09-28T00:28:35.717Z,99353.63
2022-09-28T00:31:03.687Z,99353.31
2022-09-28T00:33:31.623Z,99349.50
2022-09-28T00:35:59.693Z,99356.47
2022-09-28T00:38:29.086Z,99356.63
2022-09-28T00:40:57.406Z,99348.25
2022-09-28T00:43:25.837Z,99350.50
2022-09-28T00:46:00.240Z,99351.19
2022-09-28T00:48:32.560Z,99353.19
2022-09-28T00:51:06.189Z,99361.38
2022-09-28T00:53:38.776Z,99358.94
2022-09-28T00:56:11.274Z,99349.66
2022-09-28T00:58:43.063Z,99345.03
2022-09-28T01:01:13.124Z,99353.19
2022-09-28T01:03:45.411Z,99355.19
2022-09-28T01:06:18.921Z,99350.13
2022-09-28T01:08:48.232Z,99346.16
2022-09-28T01:11:16.162Z,99347.34
2022-09-28T01:13:44.585Z,99344.72
2022-09-28T01:16:21.293Z,99347.03
2022-09-28T01:18:58.934Z,99338.84
2022-09-28T01:21:27.713Z,99347.03
2022-09-28T01:24:11.037Z,99335.84
2022-09-28T01:27:06.482Z,99344.56
2022-09-28T01:29:46.390Z,99354.53
2022-09-28T01:32:23.752Z,99332.66
2022-09-28T01:34:59.036Z,99359.59
2022-09-28T01:37:33.436Z,99364.63
2022-09-28T01:40:03.929Z,99354.84
2022-09-28T01:42:35.674Z,99361.72
2022-09-28T01:45:09.534Z,99362.69
2022-09-28T01:47:41.220Z,99363.50
2022-09-28T01:50:13.194Z,99372.63
2022-09-28T01:52:48.378Z,99370.53
2022-09-28T01:55:24.637Z,99365.75
2022-09-28T01:57:58.503Z,99365.53
2022-09-28T02:00:27.856Z,99372.56
2022-09-28T02:03:01.868Z,99365.53
2022-09-28T02:05:31.606Z,99373.53
2022-09-28T02:08:07.916Z,99369.34
2022-09-28T02:10:42.494Z,99365.22
2022-09-28T02:13:15.764Z,99384.50
2022-09-28T02:15:50.530Z,99386.69
2022-09-28T02:18:18.649Z,99394.13
2022-09-28T02:20:51.502Z,99402.28
2022-09-28T02:23:23.697Z,99400.34
2022-09-28T02:25:55.022Z,99396.09
2022-09-28T02:28:24.344Z,99402.16
2022-09-28T02:30:52.264Z,99395.13
2022-09-28T02:33:24.657Z,99390.25
2022-09-28T02:35:52.742Z,99393.25
2022-09-28T02:38:20.671Z,99401.63
2022-09-28T02:41:04.702Z,99403.41
2022-09-28T02:43:47.053Z,99403.78
2022-09-28T02:46:23.997Z,99410.81
2022-09-28T02:49:21.510Z,99412.53
2022-09-28T02:52:02.378Z,99412.41
2022-09-28T02:54:57.629Z,99416.81
2022-09-28T02:57:36.205Z,99424.47
2022-09-28T03:00:10.627Z,99416.28
2022-09-28T03:02:47.571Z,99426.59
2022-09-28T03:05:20.682Z,99420.81
2022-09-28T03:07:57.065Z,99420.59
2022-09-28T03:10:29.526Z,99440.69
2022-09-28T03:12:58.209Z,99439.78
2022-09-28T03:15:29.972Z,99445.31
2022-09-28T03:17:58.546Z,99432.81
2022-09-28T03:20:26.897Z,99434.06
2022-09-28T03:23:12.757Z,99447.16
2022-09-28T03:25:42.804Z,99447.16
2022-09-28T03:28:10.731Z,99443.63
2022-09-28T03:30:40.163Z,99433.09
2022-09-28T03:33:08.079Z,99453.31
2022-09-28T03:35:36.146Z,99447.28
2022-09-28T03:38:04.077Z,99447.28
2022-09-28T03:40:32.076Z,99452.13
2022-09-28T03:43:01.464Z,99443.88
2022-09-28T03:45:29.381Z,99446.22
2022-09-28T03:47:58.681Z,99446.94
2022-09-28T03:50:26.922Z,99440.63
2022-09-28T03:52:54.834Z,99443.25
2022-09-28T03:55:22.777Z,99443.56
2022-09-28T03:57:56.045Z,99448.94
2022-09-28T04:00:24.237Z,99449.59
2022-09-28T04:02:52.176Z,99449.34
2022-09-28T04:05:21.453Z,99450.44
2022-09-28T04:07:49.373Z,99450.00
2022-09-28T04:10:17.528Z,99451.66
2022-09-28T04:12:46.044Z,99455.19
2022-09-28T04:15:14.080Z,99456.47
2022-09-28T04:17:42.063Z,99461.81
2022-09-28T04:20:10.584Z,99463.59
2022-09-28T04:22:39.938Z,99456.13
2022-09-28T04:25:08.209Z,99461.91
2022-09-28T04:27:53.857Z,99460.53
2022-09-28T04:30:21.994Z,99461.47
2022-09-28T04:32:50.269Z,99464.59
2022-09-28T04:35:18.330Z,99460.75
2022-09-28T04:37:47.621Z,99464.41
2022-09-28T04:40:15.808Z,99461.53
2022-09-28T04:42:43.769Z,99463.72
2022-09-28T04:45:12.221Z,99456.41
2022-09-28T04:47:40.120Z,99467.25
2022-09-28T04:50:08.935Z,99461.19
2022-09-28T04:52:37.606Z,99460.78
2022-09-28T04:55:07.895Z,99460.22
2022-09-28T04:57:36.004Z,99458.44
2022-09-28T05:00:04.852Z,99466.38
2022-09-28T05:02:33.236Z,99462.09
2022-09-28T05:05:01.342Z,99469.38
2022-09-28T05:07:29.233Z,99473.72
2022-09-28T05:09:57.150Z,99468.38
2022-09-28T05:12:26.549Z,99457.56
2022-09-28T05:14:54.452Z,99468.53
2022-09-28T05:17:22.353Z,99468.97
2022-09-28T05:19:50.256Z,99470.38
2022-09-28T05:22:18.168Z,99463.97
2022-09-28T05:24:46.548Z,99461.09
2022-09-28T05:27:14.473Z,99466.13
2022-09-28T05:29:43.846Z,99466.91
2022-09-28T05:32:11.863Z,99475.97
2022-09-28T05:34:39.910Z,99470.47
2022-09-28T05:37:07.859Z,99481.06
2022-09-28T05:39:35.873Z,99481.78
2022-09-28T05:42:03.783Z,99478.56
2022-09-28T05:44:31.701Z,99485.00
2022-09-28T05:47:00.969Z,99479.41
2022-09-28T05:49:29.278Z,99491.91
2022-09-28T05:51:57.196Z,99489.78
2022-09-28T05:54:25.121Z,99488.03
2022-09-28T05:56:53.030Z,99493.09
2022-09-28T05:59:20.959Z,99486.84
2022-09-28T06:01:48.919Z,99484.19
2022-09-28T06:04:18.385Z,99472.28
2022-09-28T06:06:46.458Z,99488.38
2022-09-28T06:09:14.422Z,99497.09
2022-09-28T06:11:42.330Z,99491.44
2022-09-28T06:14:10.572Z,99518.00
2022-09-28T06:16:43.616Z,99513.34
2022-09-28T06:19:13.228Z,99521.81
2022-09-28T06:21:42.514Z,99511.06
2022-09-28T06:24:10.566Z,99515.63
2022-09-28T06:26:38.727Z,99521.13
2022-09-28T06:29:06.643Z,99518.41
2022-09-28T06:31:34.550Z,99514.22
2022-09-28T06:34:02.580Z,99515.16
2022-09-28T06:36:31.321Z,99516.47
2022-09-28T06:39:00.629Z,99522.16
2022-09-28T06:41:28.525Z,99523.78
2022-09-28T06:43:56.496Z,99533.53
2022-09-28T06:46:24.497Z,99527.31
2022-09-28T06:48:52.621Z,99539.66
2022-09-28T06:51:20.553Z,99537.94
2022-09-28T06:53:48.526Z,99541.94
2022-09-28T06:56:18.142Z,99546.69
2022-09-28T06:58:46.100Z,99548.47
2022-09-28T07:01:14.088Z,99548.34
2022-09-28T07:03:42.070Z,99553.66
2022-09-28T07:06:12.780Z,99547.72
2022-09-28T07:08:40.826Z,99546.06
2022-09-28T07:11:10.070Z,99546.97
2022-09-28T07:13:50.267Z,99550.78
2022-09-28T07:16:22.710Z,99554.97
2022-09-28T07:18:53.770Z,99550.03
2022-09-28T07:21:29.318Z,99547.25
2022-09-28T07:23:57.958Z,99547.50
2022-09-28T07:26:26.816Z,99552.38
2022-09-28T07:28:56.386Z,99553.19
2022-09-28T07:31:25.585Z,99560.78
2022-09-28T07:33:54.014Z,99549.63
2022-09-28T07:36:22.847Z,99557.34
2022-09-28T07:38:51.111Z,99552.03
2022-09-28T07:41:22.571Z,99548.38
2022-09-28T07:43:51.005Z,99558.72
2022-09-28T07:46:21.398Z,99560.03
2022-09-28T07:48:51.799Z,99545.03
2022-09-28T07:51:21.344Z,99563.25
2022-09-28T07:53:49.315Z,99562.34
2022-09-28T07:56:20.481Z,99561.00
2022-09-28T07:58:48.954Z,99562.25
2022-09-28T08:01:17.767Z,99555.78
2022-09-28T08:03:48.056Z,99557.91
2022-09-28T08:06:17.895Z,99556.06
2022-09-28T08:08:46.173Z,99553.47
2022-09-28T08:11:15.610Z,99556.53
2022-09-28T08:13:44.102Z,99560.88
2022-09-28T08:16:13.391Z,99556.00
2022-09-28T08:18:41.417Z,99560.25
2022-09-28T08:21:34.426Z,99552.25
2022-09-28T08:24:02.736Z,99565.75
2022-09-28T08:26:30.657Z,99553.31
2022-09-28T08:28:58.643Z,99547.63
2022-09-28T08:31:26.582Z,99543.56
2022-09-28T08:33:54.551Z,99549.03
2022-09-28T08:36:24.129Z,99550.72
2022-09-28T08:38:52.262Z,99544.56
2022-09-28T08:41:29.404Z,99551.91
2022-09-28T08:44:13.848Z,99556.00
2022-09-28T08:46:45.099Z,99556.34
2022-09-28T08:49:25.500Z,99553.69
2022-09-28T08:52:01.905Z,99541.28
2022-09-28T08:54:40.651Z,99546.78
2022-09-28T08:57:15.118Z,99547.97
2022-09-28T08:59:51.394Z,99542.06
2022-09-28T09:02:25.483Z,99532.00
2022-09-28T09:04:53.942Z,99520.31
2022-09-28T09:07:51.981Z,99504.19
2022-09-28T09:10:50.694Z,99524.78
2022-09-28T09:13:45.867Z,99523.06
2022-09-28T09:16:25.187Z,99518.59
2022-09-28T09:19:00.395Z,99526.81
2022-09-28T09:21:41.137Z,99523.28
2022-09-28T09:24:21.588Z,99531.53
2022-09-28T09:26:57.138Z,99535.38
2022-09-28T09:29:34.556Z,99526.00
2022-09-28T09:32:17.878Z,99535.69
2022-09-28T09:35:07.358Z,99536.25
2022-09-28T09:38:03.094Z,99535.41
2022-09-28T09:40:48.914Z,99533.88
2022-09-28T09:43:42.140Z,99541.81
2022-09-28T09:46:17.865Z,99546.00
2022-09-28T09:48:54.188Z,99544.97
2022-09-28T09:51:30.045Z,99545.53
2022-09-28T09:54:03.517Z,99536.09
2022-09-28T09:56:39.103Z,99541.00
2022-09-28T09:59:12.558Z,99544.19
2022-09-28T10:01:42.710Z,99551.09
2022-09-28T10:04:19.154Z,99540.66
2022-09-28T10:06:50.829Z,99543.19
2022-09-28T10:09:25.053Z,99546.25
2022-09-28T10:11:54.901Z,99539.25
2022-09-28T10:14:24.442Z,99538.03
2022-09-28T10:16:54.297Z,99522.75
2022-09-28T10:19:30.118Z,99523.28
2022-09-28T10:21:58.612Z,99519.16
2022-09-28T10:24:31.457Z,99531.13
2022-09-28T10:27:06.819Z,99532.50
2022-09-28T10:29:44.570Z,99533.88
2022-09-28T10:32:24.214Z,99539.88
2022-09-28T10:34:53.565Z,99545.94
2022-09-28T10:37:21.777Z,99544.94
2022-09-28T10:39:53.340Z,99539.00
2022-09-28T10:42:27.216Z,99542.06
2022-09-28T10:44:59.641Z,99535.19
2022-09-28T10:47:32.708Z,99533.56
2022-09-28T10:50:01.717Z,99539.91
2022-09-28T10:52:33.566Z,99539.06
2022-09-28T10:55:01.898Z,99534.22
2022-09-28T10:57:36.705Z,99532.38
2022-09-28T11:00:08.415Z,99534.75
2022-09-28T11:02:39.268Z,99535.69
2022-09-28T11:05:08.982Z,99529.78
2022-09-28T11:07:47.424Z,99532.25
2022-09-28T11:10:23.282Z,99530.88
2022-09-28T11:12:53.642Z,99532.16
2022-09-28T11:15:23.803Z,99524.81
2022-09-28T11:17:52.037Z,99527.03
2022-09-28T11:20:35.870Z,99516.94
2022-09-28T11:23:20.546Z,99522.69
2022-09-28T11:26:00.109Z,99519.63
2022-09-28T11:28:33.684Z,99518.22
2022-09-28T11:31:03.458Z,99500.44
2022-09-28T11:33:34.159Z,99508.34
2022-09-28T11:36:17.174Z,99502.75
2022-09-28T11:38:53.982Z,99513.00
2022-09-28T11:41:34.347Z,99503.78
2022-09-28T11:44:37.678Z,99504.88
2022-09-28T11:47:21.729Z,99502.91
2022-09-28T11:49:56.215Z,99502.81
2022-09-28T11:52:29.388Z,99497.94
2022-09-28T11:55:00.718Z,99502.34
2022-09-28T11:57:36.458Z,99499.31
2022-09-28T12:00:09.574Z,99494.81
2022-09-28T12:02:42.963Z,99499.69
2022-09-28T12:05:19.889Z,99496.63
2022-09-28T12:07:52.574Z,99499.91
2022-09-28T12:10:26.865Z,99507.34
2022-09-28T12:13:01.602Z,99511.69
2022-09-28T12:16:11.573Z,99502.03
2022-09-28T12:18:38.896Z,99498.34
2022-09-28T12:21:23.556Z,99495.63
2022-09-28T12:23:54.786Z,99488.94
2022-09-28T12:26:37.263Z,99492.06
2022-09-28T12:29:12.142Z,99488.94
2022-09-28T12:31:53.524Z,99482.88
2022-09-28T12:34:22.471Z,99476.31
2022-09-28T12:37:05.822Z,99478.34
2022-09-28T12:39:57.725Z,99485.69
2022-09-28T12:42:54.697Z,99471.06
2022-09-28T12:46:06.640Z,99473.53
2022-09-28T12:48:44.006Z,99474.16
2022-09-28T12:51:25.162Z,99465.00
2022-09-28T12:54:07.810Z,99472.78
2022-09-28T12:56:42.833Z,99464.69
2022-09-28T12:59:20.307Z,99460.41
2022-09-28T13:02:02.404Z,99474.72
2022-09-28T13:04:51.810Z,99473.94
2022-09-28T13:07:29.307Z,99478.47
2022-09-28T13:10:07.549Z,99468.88
2022-09-28T13:12:47.455Z,99479.88
2022-09-28T13:15:42.040Z,99478.47
2022-09-28T13:18:19.299Z,99486.34
2022-09-28T13:21:05.390Z,99490.03
2022-09-28T13:23:38.933Z,99489.44
2022-09-28T13:26:11.053Z,99494.31
2022-09-28T13:28:40.321Z,99488.41
2022-09-28T13:31:10.009Z,99493.50
2022-09-28T13:33:41.057Z,99498.78
2022-09-28T13:36:47.189Z,99499.94
2022-09-28T13:39:39.112Z,99495.84
2022-09-28T13:42:10.002Z,99495.00
2022-09-28T13:45:00.323Z,99502.00
2022-09-28T13:48:00.903Z,99498.91
2022-09-28T13:50:39.135Z,99503.25
2022-09-28T13:53:20.442Z,99507.13
2022-09-28T13:55:57.380Z,99501.50
2022-09-28T13:58:29.240Z,99498.44
2022-09-28T14:01:03.535Z,99488.41
2022-09-28T14:03:53.803Z,99497.84
2022-09-28T14:06:27.952Z,99503.88
2022-09-28T14:09:24.927Z,99502.25
2022-09-28T14:11:58.954Z,99504.06
2022-09-28T14:14:32.837Z,99501.78
2022-09-28T14:17:52.234Z,99480.53
2022-09-28T14:20:26.098Z,99502.25
2022-09-28T14:23:43.337Z,99493.47
2022-09-28T14:26:54.591Z,99504.47
2022-09-28T14:29:28.872Z,99503.44
2022-09-28T14:31:58.886Z,99497.63
2022-09-28T14:34:34.384Z,99503.91
2022-09-28T14:37:21.963Z,99504.63
2022-09-28T14:40:08.012Z,99507.88
2022-09-28T14:42:37.357Z,99509.59
2022-09-28T14:45:34.885Z,99515.63
2022-09-28T14:48:21.972Z,99514.50
2022-09-28T14:50:50.491Z,99516.19
2022-09-28T14:53:24.942Z,99517.16
2022-09-28T14:55:58.020Z,99518.88
2022-09-28T14:58:30.184Z,99518.56
2022-09-28T15:01:05.693Z,99521.78
2022-09-28T15:03:37.062Z,99530.75
2022-09-28T15:06:05.129Z,99533.41
2022-09-28T15:08:40.298Z,99532.63
2022-09-28T15:11:14.896Z,99534.28
2022-09-28T15:13:44.995Z,99543.47
2022-09-28T15:16:15.098Z,99544.38
2022-09-28T15:19:11.250Z,99534.34
2022-09-28T15:21:41.313Z,99544.00
2022-09-28T15:24:29.046Z,99540.69
2022-09-28T15:26:57.274Z,99540.16
2022-09-28T15:29:31.128Z,99545.63
2022-09-28T15:31:59.428Z,99547.25
2022-09-28T15:34:46.528Z,99545.28
2022-09-28T15:37:17.747Z,99544.34
2022-09-28T15:39:46.287Z,99546.25
2022-09-28T15:42:14.422Z,99543.72
2022-09-28T15:44:47.736Z,99547.56
2022-09-28T15:47:25.323Z,99528.06
2022-09-28T15:49:59.158Z,99557.31
2022-09-28T15:52:34.013Z,99549.97
2022-09-28T15:55:05.278Z,99546.44
2022-09-28T15:57:38.985Z,99555.19
2022-09-28T16:00:24.090Z,99560.53
2022-09-28T16:03:01.789Z,99556.44
2022-09-28T16:05:36.506Z,99553.16
2022-09-28T16:08:05.746Z,99558.00
2022-09-28T16:10:35.219Z,99560.81
2022-09-28T16:13:15.631Z,99558.53
2022-09-28T16:15:45.468Z,99557.28
2022-09-28T16:18:20.721Z,99559.47
2022-09-28T16:20:51.346Z,99557.09
2022-09-28T16:23:26.394Z,99561.75
2022-09-28T16:25:58.828Z,99567.78
2022-09-28T16:28:46.086Z,99549.81
2022-09-28T16:31:28.387Z,99563.66
2022-09-28T16:33:58.987Z,99559.34
2022-09-28T16:36:29.928Z,99564.06
2022-09-28T16:38:57.961Z,99569.38
2022-09-28T16:41:29.022Z,99557.50
2022-09-28T16:44:00.976Z,99567.88
2022-09-28T16:46:33.855Z,99562.44
2022-09-28T16:49:03.182Z,99572.44
2022-09-28T16:51:31.105Z,99579.56
2022-09-28T16:54:19.002Z,99585.19
2022-09-28T16:56:46.960Z,99583.69
2022-09-28T16:59:14.945Z,99582.22
2022-09-28T17:01:44.347Z,99595.78
2022-09-28T17:04:12.798Z,99589.22
2022-09-28T17:06:40.741Z,99597.63
2022-09-28T17:09:13.155Z,99584.06
2022-09-28T17:11:41.079Z,99597.53
2022-09-28T17:14:09.490Z,99590.97
2022-09-28T17:19:30.958Z,99594.03
2022-09-28T17:21:59.117Z,99607.50
2022-09-28T17:24:27.017Z,99602.94
2022-09-28T17:26:55.038Z,99605.44
2022-09-28T17:29:23.751Z,99600.75
2022-09-28T17:31:52.176Z,99603.22
2022-09-28T17:34:20.852Z,99604.88
2022-09-28T17:36:50.433Z,99605.22
2022-09-28T17:39:20.033Z,99610.88
2022-09-28T17:41:48.076Z,99607.38
2022-09-28T17:44:16.506Z,99607.97
2022-09-28T17:46:48.726Z,99603.94
2022-09-28T17:49:17.428Z,99604.91
2022-09-28T17:51:45.540Z,99604.53
2022-09-28T17:54:16.919Z,99603.81
2022-09-28T17:56:44.906Z,99594.94
2022-09-28T17:59:15.231Z,99588.06
2022-09-28T18:01:43.255Z,99584.84
2022-09-28T18:04:27.912Z,99589.59
2022-09-28T18:07:01.559Z,99598.00
2022-09-28T18:09:30.881Z,99592.75
2022-09-28T18:12:01.429Z,99603.25
2022-09-28T18:14:30.201Z,99602.75
2022-09-28T18:16:58.143Z,99603.88
2022-09-28T18:19:31.697Z,99596.00
2022-09-28T18:22:01.523Z,99614.75
2022-09-28T18:24:32.581Z,99615.09
2022-09-28T18:27:00.675Z,99622.16
2022-09-28T18:29:32.908Z,99622.81
2022-09-28T18:32:01.520Z,99620.94
2022-09-28T18:34:29.450Z,99633.06
2022-09-28T18:36:57.349Z,99625.13
2022-09-28T18:39:26.597Z,99626.16
2022-09-28T18:41:56.037Z,99621.59
2022-09-28T18:44:24.032Z,99622.94
2022-09-28T18:46:51.972Z,99607.84
2022-09-28T18:49:20.061Z,99614.31
2022-09-28T18:51:48.314Z,99610.72
2022-09-28T18:54:17.129Z,99615.50
2022-09-28T18:56:45.021Z,99614.06
2022-09-28T18:59:14.925Z,99610.13
2022-09-28T19:01:43.426Z,99604.09
2022-09-28T19:04:13.665Z,99597.84
2022-09-28T19:06:44.617Z,99597.31
2022-09-28T19:09:13.326Z,99611.59
2022-09-28T19:11:41.352Z,99603.88
2022-09-28T19:14:11.166Z,99598.59
2022-09-28T19:16:40.534Z,99611.72
2022-09-28T19:19:08.952Z,99614.69
2022-09-28T19:21:36.959Z,99614.19
2022-09-28T19:24:05.377Z,99630.19
2022-09-28T19:26:33.964Z,99624.66
2022-09-28T19:29:02.919Z,99631.59
2022-09-28T19:31:31.830Z,99623.34
2022-09-28T19:34:01.244Z,99615.31
2022-09-28T19:36:29.902Z,99637.16
2022-09-28T19:39:00.021Z,99639.78
2022-09-28T19:41:51.259Z,99634.53
2022-09-28T19:44:25.712Z,99638.81
2022-09-28T19:46:55.415Z,99636.81
2022-09-28T19:49:26.810Z,99640.75
2022-09-28T19:54:46.151Z,99642.75
2022-09-28T19:57:16.055Z,99645.03
2022-09-28T19:59:45.384Z,99637.66
2022-09-28T20:02:14.562Z,99633.84
2022-09-28T20:04:43.885Z,99636.81
2022-09-28T20:07:11.834Z,99638.63
2022-09-28T20:09:39.811Z,99643.41
2022-09-28T20:12:07.773Z,99637.81
2022-09-28T20:14:38.311Z,99648.34
2022-09-28T20:17:08.746Z,99660.84
2022-09-28T20:19:36.653Z,99657.38
2022-09-28T20:22:06.016Z,99658.53
2022-09-28T20:24:34.094Z,99637.34
2022-09-28T20:27:02.935Z,99657.69
2022-09-28T20:29:35.072Z,99666.41
2022-09-28T20:32:04.106Z,99658.69
2022-09-28T20:34:33.622Z,99657.69
2022-09-28T20:37:01.625Z,99658.19
2022-09-28T20:39:30.949Z,99664.13
2022-09-28T20:41:58.860Z,99668.22
2022-09-28T20:44:26.779Z,99670.84
2022-09-28T20:46:54.711Z,99666.41
2022-09-28T20:49:22.727Z,99668.69
2022-09-28T20:51:50.627Z,99666.41
2022-09-28T20:54:18.692Z,99666.06
2022-09-28T20:56:48.338Z,99665.75
2022-09-28T20:59:16.563Z,99668.56
2022-09-28T21:01:44.937Z,99669.38
2022-09-28T21:04:13.218Z,99651.28
2022-09-28T21:06:42.860Z,99682.00
2022-09-28T21:09:12.429Z,99657.22
2022-09-28T21:11:41.729Z,99667.41
2022-09-28T21:14:11.305Z,99673.66
2022-09-28T21:16:39.481Z,99680.56
2022-09-28T21:19:07.423Z,99682.88
2022-09-28T21:21:35.434Z,99680.56
2022-09-28T21:24:03.673Z,99687.44
2022-09-28T21:26:32.904Z,99693.72
2022-09-28T21:29:02.249Z,99688.09
2022-09-28T21:31:33.747Z,99674.00
2022-09-28T21:34:01.900Z,99680.41
2022-09-28T21:36:30.209Z,99672.66
2022-09-28T21:38:58.537Z,99674.28
2022-09-28T21:41:26.892Z,99666.09
2022-09-28T21:43:55.052Z,99671.66
2022-09-28T21:46:23.204Z,99668.38
2022-09-28T21:48:54.498Z,99671.66
2022-09-28T21:51:22.744Z,99672.66
2022-09-28T21:53:50.843Z,99664.75
2022-09-28T21:56:18.786Z,99656.38
2022-09-28T21:58:47.443Z,99661.81
2022-09-28T22:01:16.923Z,99664.09
2022-09-28T22:03:46.731Z,99659.19
2022-09-28T22:06:18.471Z,99673.66
2022-09-28T22:08:47.020Z,99677.59
2022-09-28T22:11:16.746Z,99669.72
2022-09-28T22:13:46.370Z,99674.63
2022-09-28T22:16:16.050Z,99667.56
2022-09-28T22:18:44.825Z,99667.88
2022-09-28T22:21:17.796Z,99663.91
2022-09-28T22:23:46.049Z,99666.06
2022-09-28T22:26:18.036Z,99663.44
2022-09-28T22:28:48.128Z,99661.16
2022-09-28T22:31:16.758Z,99661.16
2022-09-28T22:33:44.854Z,99660.84
2022-09-28T22:36:15.202Z,99663.78
2022-09-28T22:38:45.480Z,99665.75
2022-09-28T22:41:15.863Z,99661.97
2022-09-28T22:43:44.233Z,99660.50
2022-09-28T22:46:13.702Z,99659.34
2022-09-28T22:48:42.372Z,99665.56
2022-09-28T22:51:10.384Z,99654.41
2022-09-28T22:53:38.412Z,99659.34
2022-09-28T22:56:08.971Z,99656.22
2022-09-28T22:58:38.883Z,99653.25
2022-09-28T23:01:08.218Z,99651.13
2022-09-28T23:03:36.385Z,99626.63
2022-09-28T23:06:04.618Z,99637.44
2022-09-28T23:08:33.066Z,99647.47
2022-09-28T23:11:01.025Z,99639.09
2022-09-28T23:13:31.163Z,99639.22
2022-09-28T23:16:00.360Z,99630.50
2022-09-28T23:18:30.220Z,99630.63
2022-09-28T23:20:59.824Z,99630.13
2022-09-28T23:23:28.257Z,99631.44
2022-09-28T23:25:57.209Z,99620.94
2022-09-28T23:28:27.570Z,99627.69
2022-09-28T23:30:56.905Z,99633.44
2022-09-28T23:33:24.843Z,99635.41
2022-09-28T23:35:52.770Z,99643.47
2022-09-28T23:38:20.678Z,99634.41
2022-09-28T23:40:49.021Z,99631.28
2022-09-28T23:43:16.949Z,99623.22
2022-09-28T23:45:45.599Z,99626.94
2022-09-28T23:48:15.261Z,99630.91
2022-09-28T23:50:44.053Z,99624.00
2022-09-28T23:53:13.758Z,99630.06
2022-09-28T23:55:42.705Z,99621.81
2022-09-28T23:58:10.698Z,99630.16
